CMP892 MPTO-SKSP
Flight info
| Callsign | CMP892 |
|---|---|
| Flight time | 0h 48m |
| Altitude | 30000 |
| Route | SIMAN3B SIMAN DCT BIXOX BIXOX2C |
| Aircraft | B738/M-SDE2E3GHIJ4J7RWZ/LB1D1 |
Departure
| Time | 2026-05-03 23:47 |
|---|---|
| Airport | Tocumen International Airport (MPTO) |
Arrival
| Time | 2026-05-04 00:36 |
|---|---|
| Airport | Gustavo Rojas Pinilla International Airport (SKSP) |
| Time | Latitude | Longitude | Altitude | Speed | Heading |
|---|---|---|---|---|---|
| 2026-05-03 23:11 | 9.07022 | -79.38522 | 62 ft | 0 kts | 300° |
| 2026-05-03 23:39 | 9.07017 | -79.38512 | 62 ft | 2 kts | 300° |
| 2026-05-03 23:39 | 9.07009 | -79.38499 | 62 ft | 2 kts | 300° |
| 2026-05-03 23:39 | 9.07001 | -79.38485 | 62 ft | 2 kts | 303° |
| 2026-05-03 23:39 | 9.06991 | -79.38476 | 61 ft | 2 kts | 335° |
| 2026-05-03 23:40 | 9.06975 | -79.38471 | 61 ft | 2 kts | 356° |
| 2026-05-03 23:40 | 9.06960 | -79.38473 | 61 ft | 2 kts | 16° |
| 2026-05-03 23:40 | 9.06946 | -79.38479 | 61 ft | 2 kts | 36° |
| 2026-05-03 23:40 | 9.06938 | -79.38486 | 61 ft | 0 kts | 39° |
| 2026-05-03 23:41 | 9.06936 | -79.38487 | 61 ft | 0 kts | 38° |
| 2026-05-03 23:41 | 9.06937 | -79.38487 | 61 ft | 0 kts | 38° |
| 2026-05-03 23:42 | 9.06976 | -79.38461 | 61 ft | 12 kts | 30° |
| 2026-05-03 23:42 | 9.07052 | -79.38418 | 60 ft | 12 kts | 28° |
| 2026-05-03 23:42 | 9.07123 | -79.38375 | 61 ft | 7 kts | 33° |
| 2026-05-03 23:42 | 9.07132 | -79.38369 | 61 ft | 0 kts | 33° |
| 2026-05-03 23:43 | 9.07134 | -79.38368 | 61 ft | 0 kts | 31° |
| 2026-05-03 23:43 | 9.07138 | -79.38365 | 61 ft | 0 kts | 32° |
| 2026-05-03 23:43 | 9.07145 | -79.38361 | 62 ft | 1 kts | 32° |
| 2026-05-03 23:43 | 9.07152 | -79.38356 | 62 ft | 1 kts | 33° |
| 2026-05-03 23:44 | 9.07160 | -79.38351 | 62 ft | 1 kts | 33° |
| 2026-05-03 23:44 | 9.07168 | -79.38346 | 62 ft | 1 kts | 33° |
| 2026-05-03 23:44 | 9.07176 | -79.38340 | 62 ft | 1 kts | 33° |
| 2026-05-03 23:44 | 9.07199 | -79.38332 | 62 ft | 4 kts | 3° |
| 2026-05-03 23:45 | 9.07227 | -79.38343 | 62 ft | 3 kts | 316° |
| 2026-05-03 23:45 | 9.07239 | -79.38362 | 63 ft | 2 kts | 299° |
| 2026-05-03 23:45 | 9.07247 | -79.38377 | 63 ft | 2 kts | 298° |
| 2026-05-03 23:45 | 9.07255 | -79.38392 | 63 ft | 4 kts | 298° |
| 2026-05-03 23:46 | 9.07287 | -79.38449 | 64 ft | 14 kts | 299° |
| 2026-05-03 23:46 | 9.07339 | -79.38545 | 64 ft | 12 kts | 298° |
| 2026-05-03 23:46 | 9.07383 | -79.38622 | 63 ft | 12 kts | 314° |
| 2026-05-03 23:46 | 9.07468 | -79.38615 | 63 ft | 17 kts | 31° |
| 2026-05-03 23:47 | 9.07752 | -79.38451 | 70 ft | 75 kts | 31° |
| 2026-05-03 23:47 | 9.08368 | -79.38079 | 91 ft | 128 kts | 31° |
| 2026-05-03 23:47 | 9.09247 | -79.37547 | 297 ft | 155 kts | 32° |
| 2026-05-03 23:47 | 9.10121 | -79.36996 | 916 ft | 153 kts | 30° |
| 2026-05-03 23:48 | 9.11093 | -79.36391 | 1262 ft | 172 kts | 31° |
| 2026-05-03 23:48 | 9.12158 | -79.35783 | 1801 ft | 177 kts | 28° |
| 2026-05-03 23:48 | 9.13217 | -79.35193 | 2019 ft | 184 kts | 28° |
| 2026-05-03 23:48 | 9.14380 | -79.34516 | 2439 ft | 203 kts | 30° |
| 2026-05-03 23:49 | 9.15668 | -79.33745 | 2875 ft | 224 kts | 30° |
| 2026-05-03 23:49 | 9.17059 | -79.32910 | 3420 ft | 240 kts | 30° |
| 2026-05-03 23:49 | 9.18547 | -79.32018 | 3976 ft | 256 kts | 30° |
| 2026-05-03 23:49 | 9.20105 | -79.31086 | 4745 ft | 261 kts | 30° |
| 2026-05-03 23:50 | 9.21695 | -79.30218 | 5532 ft | 265 kts | 21° |
| 2026-05-03 23:50 | 9.23524 | -79.29959 | 6348 ft | 269 kts | 355° |
| 2026-05-03 23:50 | 9.25327 | -79.30479 | 7159 ft | 275 kts | 336° |
| 2026-05-03 23:50 | 9.26959 | -79.31520 | 7935 ft | 282 kts | 323° |
| 2026-05-03 23:51 | 9.28249 | -79.33025 | 8733 ft | 291 kts | 301° |
| 2026-05-03 23:51 | 9.28830 | -79.35004 | 9529 ft | 300 kts | 276° |
| 2026-05-03 23:51 | 9.28747 | -79.37113 | 10328 ft | 306 kts | 266° |
| 2026-05-03 23:51 | 9.28538 | -79.39269 | 11127 ft | 311 kts | 265° |
| 2026-05-03 23:52 | 9.28333 | -79.41444 | 11925 ft | 316 kts | 265° |
| 2026-05-03 23:52 | 9.28133 | -79.43663 | 12691 ft | 321 kts | 265° |
| 2026-05-03 23:52 | 9.27934 | -79.45905 | 13483 ft | 325 kts | 265° |
| 2026-05-03 23:52 | 9.27732 | -79.48175 | 14325 ft | 327 kts | 264° |
| 2026-05-03 23:53 | 9.27529 | -79.50465 | 15108 ft | 331 kts | 264° |
| 2026-05-03 23:53 | 9.27345 | -79.52789 | 15891 ft | 335 kts | 266° |
| 2026-05-03 23:53 | 9.27363 | -79.55134 | 16641 ft | 339 kts | 275° |
| 2026-05-03 23:53 | 9.27754 | -79.57526 | 17155 ft | 351 kts | 283° |
| 2026-05-03 23:54 | 9.28402 | -79.59970 | 17553 ft | 367 kts | 286° |
| 2026-05-03 23:54 | 9.29163 | -79.62472 | 17919 ft | 382 kts | 287° |
| 2026-05-03 23:54 | 9.29978 | -79.65094 | 18299 ft | 395 kts | 286° |
| 2026-05-03 23:54 | 9.30792 | -79.67750 | 18937 ft | 399 kts | 286° |
| 2026-05-03 23:55 | 9.31597 | -79.70435 | 19669 ft | 400 kts | 285° |
| 2026-05-03 23:55 | 9.32394 | -79.73141 | 20324 ft | 403 kts | 285° |
| 2026-05-03 23:55 | 9.33184 | -79.75855 | 20957 ft | 406 kts | 285° |
| 2026-05-03 23:55 | 9.33977 | -79.78597 | 21579 ft | 409 kts | 284° |
| 2026-05-03 23:56 | 9.34819 | -79.81258 | 22158 ft | 412 kts | 288° |
| 2026-05-03 23:56 | 9.35977 | -79.83924 | 22722 ft | 417 kts | 297° |
| 2026-05-03 23:56 | 9.37588 | -79.86382 | 23264 ft | 422 kts | 307° |
| 2026-05-03 23:56 | 9.39645 | -79.88554 | 23806 ft | 427 kts | 318° |
| 2026-05-03 23:57 | 9.42038 | -79.90355 | 24314 ft | 432 kts | 326° |
| 2026-05-03 23:57 | 9.44623 | -79.91900 | 24860 ft | 435 kts | 330° |
| 2026-05-03 23:57 | 9.47312 | -79.93347 | 25372 ft | 438 kts | 332° |
| 2026-05-03 23:57 | 9.50022 | -79.94759 | 26148 ft | 433 kts | 332° |
| 2026-05-03 23:58 | 9.52692 | -79.96154 | 26892 ft | 430 kts | 332° |
| 2026-05-03 23:58 | 9.55304 | -79.97539 | 27563 ft | 427 kts | 332° |
| 2026-05-03 23:58 | 9.57926 | -79.98953 | 28204 ft | 425 kts | 332° |
| 2026-05-03 23:58 | 9.60551 | -80.00391 | 28870 ft | 423 kts | 331° |
| 2026-05-03 23:59 | 9.63092 | -80.01799 | 29495 ft | 421 kts | 331° |
| 2026-05-03 23:59 | 9.65681 | -80.03246 | 29848 ft | 425 kts | 331° |
| 2026-05-03 23:59 | 9.70832 | -80.06150 | 29884 ft | 421 kts | 331° |
| 2026-05-04 00:00 | 9.75969 | -80.09062 | 29888 ft | 420 kts | 331° |
| 2026-05-04 00:00 | 9.81082 | -80.11967 | 29885 ft | 421 kts | 330° |
| 2026-05-04 00:01 | 9.86173 | -80.14861 | 29885 ft | 421 kts | 330° |
| 2026-05-04 00:01 | 9.91318 | -80.17788 | 29887 ft | 422 kts | 330° |
| 2026-05-04 00:02 | 9.96442 | -80.20705 | 29886 ft | 421 kts | 330° |
| 2026-05-04 00:02 | 10.01540 | -80.23607 | 29886 ft | 421 kts | 330° |
| 2026-05-04 00:03 | 10.06664 | -80.26523 | 29885 ft | 421 kts | 330° |
| 2026-05-04 00:03 | 10.11804 | -80.29450 | 29885 ft | 422 kts | 330° |
| 2026-05-04 00:04 | 10.16911 | -80.32359 | 29885 ft | 422 kts | 330° |
| 2026-05-04 00:04 | 10.22058 | -80.35294 | 29886 ft | 422 kts | 330° |
| 2026-05-04 00:05 | 10.27183 | -80.38215 | 29886 ft | 422 kts | 330° |
| 2026-05-04 00:05 | 10.32327 | -80.41149 | 29887 ft | 422 kts | 330° |
| 2026-05-04 00:06 | 10.37453 | -80.44073 | 29888 ft | 422 kts | 330° |
| 2026-05-04 00:06 | 10.42563 | -80.46989 | 29887 ft | 421 kts | 330° |
| 2026-05-04 00:07 | 10.47698 | -80.49921 | 29886 ft | 422 kts | 330° |
| 2026-05-04 00:07 | 10.52836 | -80.52856 | 29885 ft | 422 kts | 330° |
| 2026-05-04 00:08 | 10.57958 | -80.55784 | 29887 ft | 421 kts | 330° |
| 2026-05-04 00:08 | 10.63058 | -80.58700 | 29890 ft | 422 kts | 330° |
| 2026-05-04 00:09 | 10.68179 | -80.61627 | 29892 ft | 423 kts | 330° |
| 2026-05-04 00:09 | 10.73298 | -80.64556 | 29892 ft | 422 kts | 330° |
| 2026-05-04 00:10 | 10.78430 | -80.67493 | 29897 ft | 423 kts | 330° |
| 2026-05-04 00:10 | 10.83569 | -80.70435 | 29898 ft | 422 kts | 330° |
| 2026-05-04 00:11 | 10.88690 | -80.73368 | 29898 ft | 422 kts | 330° |
| 2026-05-04 00:11 | 10.93821 | -80.76308 | 29901 ft | 423 kts | 330° |
| 2026-05-04 00:12 | 10.98973 | -80.79260 | 29900 ft | 422 kts | 330° |
| 2026-05-04 00:12 | 11.04088 | -80.82193 | 29901 ft | 423 kts | 330° |
| 2026-05-04 00:13 | 11.09245 | -80.85151 | 29904 ft | 423 kts | 330° |
| 2026-05-04 00:13 | 11.14378 | -80.88097 | 29903 ft | 423 kts | 330° |
| 2026-05-04 00:14 | 11.19537 | -80.91059 | 29904 ft | 422 kts | 330° |
| 2026-05-04 00:14 | 11.24578 | -80.93955 | 29793 ft | 418 kts | 330° |
| 2026-05-04 00:15 | 11.27100 | -80.95404 | 29458 ft | 412 kts | 330° |
| 2026-05-04 00:15 | 11.29574 | -80.96825 | 29113 ft | 405 kts | 330° |
| 2026-05-04 00:15 | 11.32024 | -80.98234 | 28647 ft | 402 kts | 330° |
| 2026-05-04 00:15 | 11.34446 | -80.99627 | 28151 ft | 399 kts | 329° |
| 2026-05-04 00:16 | 11.36863 | -81.01019 | 27648 ft | 398 kts | 329° |
| 2026-05-04 00:16 | 11.39249 | -81.02391 | 27146 ft | 396 kts | 329° |
| 2026-05-04 00:16 | 11.41647 | -81.03772 | 26640 ft | 394 kts | 329° |
| 2026-05-04 00:16 | 11.44039 | -81.05149 | 26134 ft | 392 kts | 329° |
| 2026-05-04 00:17 | 11.46412 | -81.06516 | 25632 ft | 390 kts | 329° |
| 2026-05-04 00:17 | 11.48772 | -81.07876 | 25133 ft | 388 kts | 329° |
| 2026-05-04 00:17 | 11.51117 | -81.09226 | 24639 ft | 386 kts | 329° |
| 2026-05-04 00:17 | 11.53451 | -81.10571 | 24145 ft | 384 kts | 329° |
| 2026-05-04 00:18 | 11.55757 | -81.11947 | 23652 ft | 382 kts | 326° |
| 2026-05-04 00:18 | 11.57927 | -81.13472 | 23167 ft | 379 kts | 322° |
| 2026-05-04 00:18 | 11.59985 | -81.15096 | 22691 ft | 377 kts | 320° |
| 2026-05-04 00:18 | 11.62015 | -81.16781 | 22202 ft | 375 kts | 319° |
| 2026-05-04 00:19 | 11.64030 | -81.18474 | 21727 ft | 373 kts | 319° |
| 2026-05-04 00:19 | 11.66030 | -81.20149 | 21246 ft | 372 kts | 319° |
| 2026-05-04 00:19 | 11.68025 | -81.21808 | 20767 ft | 371 kts | 319° |
| 2026-05-04 00:19 | 11.70026 | -81.23463 | 20284 ft | 370 kts | 320° |
| 2026-05-04 00:20 | 11.72023 | -81.25108 | 19805 ft | 368 kts | 320° |
| 2026-05-04 00:20 | 11.74028 | -81.26756 | 19319 ft | 367 kts | 321° |
| 2026-05-04 00:20 | 11.76014 | -81.28385 | 18842 ft | 366 kts | 321° |
| 2026-05-04 00:20 | 11.77996 | -81.30012 | 18360 ft | 365 kts | 321° |
| 2026-05-04 00:21 | 11.79947 | -81.31614 | 17887 ft | 363 kts | 321° |
| 2026-05-04 00:21 | 11.81916 | -81.33231 | 17412 ft | 362 kts | 321° |
| 2026-05-04 00:21 | 11.83884 | -81.34847 | 16964 ft | 359 kts | 321° |
| 2026-05-04 00:21 | 11.85828 | -81.36443 | 16511 ft | 357 kts | 322° |
| 2026-05-04 00:22 | 11.87768 | -81.38033 | 16042 ft | 356 kts | 322° |
| 2026-05-04 00:22 | 11.89676 | -81.39600 | 15579 ft | 354 kts | 322° |
| 2026-05-04 00:22 | 11.91608 | -81.41184 | 15109 ft | 353 kts | 322° |
| 2026-05-04 00:22 | 11.93504 | -81.42741 | 14646 ft | 351 kts | 322° |
| 2026-05-04 00:23 | 11.95394 | -81.44292 | 14185 ft | 349 kts | 322° |
| 2026-05-04 00:23 | 11.97293 | -81.45852 | 13721 ft | 347 kts | 323° |
| 2026-05-04 00:23 | 11.99164 | -81.47388 | 13262 ft | 344 kts | 323° |
| 2026-05-04 00:23 | 12.01031 | -81.48922 | 12801 ft | 342 kts | 323° |
| 2026-05-04 00:24 | 12.02862 | -81.50427 | 12353 ft | 340 kts | 323° |
| 2026-05-04 00:24 | 12.04717 | -81.51951 | 11894 ft | 338 kts | 323° |
| 2026-05-04 00:24 | 12.06520 | -81.53433 | 11441 ft | 333 kts | 323° |
| 2026-05-04 00:24 | 12.07600 | -81.54321 | 11180 ft | 328 kts | 323° |
| 2026-05-04 00:25 | 12.07698 | -81.54401 | 11157 ft | 327 kts | 323° |
| 2026-05-04 00:25 | 12.09442 | -81.55836 | 10727 ft | 320 kts | 323° |
| 2026-05-04 00:25 | 12.11153 | -81.57245 | 10299 ft | 314 kts | 324° |
| 2026-05-04 00:25 | 12.12841 | -81.58636 | 9993 ft | 303 kts | 324° |
| 2026-05-04 00:26 | 12.14427 | -81.59944 | 9876 ft | 287 kts | 324° |
| 2026-05-04 00:26 | 12.15960 | -81.61210 | 9557 ft | 280 kts | 324° |
| 2026-05-04 00:26 | 12.17477 | -81.62457 | 9155 ft | 279 kts | 324° |
| 2026-05-04 00:26 | 12.18986 | -81.63695 | 8796 ft | 279 kts | 324° |
| 2026-05-04 00:27 | 12.20512 | -81.64949 | 8444 ft | 278 kts | 325° |
| 2026-05-04 00:27 | 12.22012 | -81.66183 | 8101 ft | 277 kts | 324° |
| 2026-05-04 00:27 | 12.23501 | -81.67410 | 7756 ft | 276 kts | 324° |
| 2026-05-04 00:27 | 12.25000 | -81.68645 | 7410 ft | 275 kts | 324° |
| 2026-05-04 00:28 | 12.26488 | -81.69870 | 7069 ft | 274 kts | 324° |
| 2026-05-04 00:28 | 12.27977 | -81.71094 | 6724 ft | 273 kts | 324° |
| 2026-05-04 00:28 | 12.29450 | -81.72311 | 6381 ft | 271 kts | 324° |
| 2026-05-04 00:28 | 12.29996 | -81.72761 | 6254 ft | 271 kts | 324° |
| 2026-05-04 00:29 | 12.31451 | -81.73960 | 5925 ft | 270 kts | 324° |
| 2026-05-04 00:29 | 12.32917 | -81.75170 | 5581 ft | 268 kts | 324° |
| 2026-05-04 00:29 | 12.34370 | -81.76366 | 5240 ft | 267 kts | 325° |
| 2026-05-04 00:29 | 12.35809 | -81.77551 | 4902 ft | 266 kts | 325° |
| 2026-05-04 00:30 | 12.37244 | -81.78734 | 4567 ft | 265 kts | 325° |
| 2026-05-04 00:30 | 12.38689 | -81.79926 | 4228 ft | 264 kts | 324° |
| 2026-05-04 00:30 | 12.40098 | -81.81087 | 3985 ft | 259 kts | 325° |
| 2026-05-04 00:30 | 12.41542 | -81.82131 | 3889 ft | 247 kts | 332° |
| 2026-05-04 00:31 | 12.43018 | -81.83026 | 3528 ft | 247 kts | 334° |
| 2026-05-04 00:31 | 12.44498 | -81.83880 | 3293 ft | 243 kts | 335° |
| 2026-05-04 00:31 | 12.46009 | -81.84659 | 3085 ft | 237 kts | 347° |
| 2026-05-04 00:31 | 12.47566 | -81.84651 | 2808 ft | 219 kts | 22° |
| 2026-05-04 00:32 | 12.48784 | -81.83834 | 2593 ft | 204 kts | 45° |
| 2026-05-04 00:32 | 12.49747 | -81.82838 | 2372 ft | 186 kts | 46° |
| 2026-05-04 00:32 | 12.50655 | -81.81983 | 2185 ft | 168 kts | 43° |
| 2026-05-04 00:32 | 12.51504 | -81.81245 | 2027 ft | 153 kts | 42° |
| 2026-05-04 00:33 | 12.52287 | -81.80575 | 1902 ft | 139 kts | 42° |
| 2026-05-04 00:33 | 12.53676 | -81.79345 | 1615 ft | 128 kts | 48° |
| 2026-05-04 00:33 | 12.54148 | -81.78548 | 1476 ft | 132 kts | 63° |
| 2026-05-04 00:34 | 12.54591 | -81.77707 | 1269 ft | 134 kts | 59° |
| 2026-05-04 00:34 | 12.55074 | -81.76886 | 1093 ft | 134 kts | 59° |
| 2026-05-04 00:34 | 12.55547 | -81.76056 | 909 ft | 136 kts | 59° |
| 2026-05-04 00:34 | 12.56024 | -81.75226 | 720 ft | 137 kts | 59° |
| 2026-05-04 00:35 | 12.56507 | -81.74380 | 542 ft | 138 kts | 59° |
| 2026-05-04 00:35 | 12.56994 | -81.73526 | 373 ft | 138 kts | 59° |
| 2026-05-04 00:35 | 12.57482 | -81.72678 | 195 ft | 138 kts | 60° |
| 2026-05-04 00:35 | 12.57963 | -81.71826 | 47 ft | 135 kts | 60° |
| 2026-05-04 00:36 | 12.58358 | -81.71133 | 27 ft | 78 kts | 59° |
| 2026-05-04 00:36 | 12.58570 | -81.70760 | 25 ft | 55 kts | 59° |
| 2026-05-04 00:36 | 12.58701 | -81.70533 | 24 ft | 19 kts | 59° |
| 2026-05-04 00:36 | 12.58737 | -81.70437 | 22 ft | 10 kts | 103° |
| 2026-05-04 00:37 | 12.58709 | -81.70367 | 21 ft | 7 kts | 112° |
| 2026-05-04 00:37 | 12.58681 | -81.70327 | 20 ft | 6 kts | 148° |
| 2026-05-04 00:37 | 12.58658 | -81.70313 | 20 ft | 2 kts | 150° |
| 2026-05-04 00:37 | 12.58650 | -81.70309 | 20 ft | 0 kts | 149° |
| 2026-05-04 00:38 | 12.58647 | -81.70306 | 20 ft | 0 kts | 149° |
| 2026-05-04 00:38 | 12.58639 | -81.70302 | 20 ft | 0 kts | 149° |